Time;durP1;ratioP1;P1;durP2;ratioP2;P2;SDS_P1;SDS_P2;PMS_P1;PMS_P2;Temp;Humidity;BMP_temperature;BMP_pressure;BME280_temperature;BME280_humidity;BME280_pressure;Samples;Min_cycle;Max_cycle;Signal;HPM_P1;HPM_P2
2021/09/30 00:00:41;;;;;;;;;;;22.00;99.90;;;;;;3724892;28;401888;-76
2021/09/30 00:03:08;;;;;;;;;;;22.20;99.90;;;;;;5070485;28;20627;-72
2021/09/30 00:05:35;;;;;;;;;;;22.30;99.90;;;;;;2387493;28;512750;-75
2021/09/30 00:08:10;;;;;;;;;;;22.60;99.90;;;;;;5075580;28;20396;-81
2021/09/30 00:10:40;;;;;;;;;;;22.70;99.90;;;;;;1091122;28;126806;-80
2021/09/30 00:13:18;;;;;;;;;;;22.70;99.90;;;;;;1534189;28;210167;-71
2021/09/30 00:40:13;;;;;;;;;;;22.70;98.10;;;;;;5071857;28;19915;-69
2021/09/30 00:48:00;;;;;;;;;;;23.30;97.70;;;;;;5072102;28;19912;-74
2021/09/30 00:50:34;;;;;;;;;;;23.20;97.60;;;;;;5071973;28;19916;-72
2021/09/30 02:19:05;;;;;;;;;;;21.30;99.90;;;;;;4982172;28;41600;-68
2021/09/30 02:22:03;;;;;;;;;;;21.20;99.90;;;;;;5036460;28;20196;-75
2021/09/30 02:59:50;;;;;;;;;;;21.20;99.90;;;;;;4690723;28;158370;-73
2021/09/30 03:02:19;;;;;;;184.80;47.20;;;21.30;99.90;;;;;;4752607;28;193044;-71
2021/09/30 03:04:47;;;;;;;163.10;44.60;;;21.30;99.90;;;;;;5093157;28;20639;-76
2021/09/30 03:07:17;;;;;;;155.40;43.40;;;21.30;99.90;;;;;;5093100;28;20518;-82
2021/09/30 03:09:47;;;;;;;155.30;44.20;;;21.90;99.90;;;;;;5089566;28;20644;-78
2021/09/30 03:12:38;;;;;;;159.70;44.40;;;22.50;99.90;;;;;;5084395;28;20245;-79
2021/09/30 03:15:27;;;;;;;151.55;44.30;;;22.90;99.90;;;;;;5060390;28;20263;-70
2021/09/30 03:23:12;;;;;;;154.20;44.60;;;23.20;99.90;;;;;;5073901;28;20189;-71
2021/09/30 03:25:42;;;;;;;143.30;42.80;;;23.20;99.90;;;;;;5059539;28;20180;-72
2021/09/30 03:28:11;;;;;;;146.20;43.50;;;23.40;99.90;;;;;;5052023;28;20193;-77
2021/09/30 03:30:39;;;;;;;138.90;42.00;;;23.30;99.90;;;;;;4998462;28;20302;-77
2021/09/30 03:33:07;;;;;;;;;;;23.20;99.90;;;;;;4953528;28;20975;-76
2021/09/30 03:35:35;;;;;;;;;;;23.20;99.90;;;;;;4960878;28;25282;-68
2021/09/30 03:38:02;;;;;;;;;;;23.20;99.90;;;;;;4989412;28;20212;-72
2021/09/30 03:40:29;;;;;;;;;;;23.70;99.90;;;;;;5006405;28;20166;-78
2021/09/30 03:42:56;;;;;;;170.50;46.40;;;23.80;99.90;;;;;;5043370;28;20177;-72
2021/09/30 03:45:24;;;;;;;170.60;46.10;;;23.90;99.90;;;;;;5033516;28;86771;-76
2021/09/30 03:47:51;;;;;;;172.90;46.10;;;23.30;99.90;;;;;;5058205;28;20164;-73
2021/09/30 03:51:06;;;;;;;6.60;6.15;;;23.40;99.90;;;;;;4576632;28;863518;-78
2021/09/30 03:53:14;;;;;;;174.00;45.30;;;23.60;99.90;;;;;;5065200;28;95017;-73
2021/09/30 04:01:15;;;;;;;166.20;45.40;;;22.50;99.90;;;;;;5069779;28;20217;-75
2021/09/30 04:03:43;;;;;;;95.23;27.53;;;22.80;99.90;;;;;;4975016;28;941910;-75
2021/09/30 04:06:11;;;;;;;7.50;6.88;;;23.40;99.90;;;;;;4463344;28;918777;-74
2021/09/30 04:08:40;;;;;;;10.20;9.40;;;23.50;99.90;;;;;;5049503;28;36558;-77
2021/09/30 04:11:07;;;;;;;8.27;7.50;;;23.80;99.90;;;;;;5058045;28;20215;-76
2021/09/30 04:13:35;;;;;;;6.70;6.10;;;24.10;99.90;;;;;;5047947;28;20245;-74
2021/09/30 04:16:02;;;;;;;8.00;7.30;;;24.30;99.90;;;;;;5073486;28;20190;-75
2021/09/30 04:18:30;;;;;;;6.80;6.20;;;24.20;99.90;;;;;;5049122;28;105673;-76
2021/09/30 04:20:57;;;;;;;8.05;7.35;;;24.40;99.90;;;;;;5076997;28;20192;-76
2021/09/30 04:23:25;;;;;;;6.40;5.80;;;24.50;99.90;;;;;;4989094;28;80027;-76
2021/09/30 04:25:52;;;;;;;6.75;6.15;;;25.10;99.90;;;;;;5026053;28;863444;-78
2021/09/30 04:28:20;;;;;;;6.10;5.50;;;25.30;99.60;;;;;;5057491;28;20231;-77
2021/09/30 04:30:47;;;;;;;4.95;4.40;;;24.90;99.00;;;;;;5062681;28;58999;-77
2021/09/30 04:33:15;;;;;;;5.05;4.55;;;24.70;99.60;;;;;;5067920;28;20745;-72
2021/09/30 04:35:42;;;;;;;9.25;8.50;;;25.00;99.90;;;;;;5063529;28;20285;-75
2021/09/30 04:38:10;;;;;;;8.93;8.20;;;25.10;99.10;;;;;;5072530;28;20332;-76
2021/09/30 04:40:38;;;;;;;7.65;6.95;;;25.30;98.80;;;;;;5071315;28;20303;-78
2021/09/30 04:43:05;;;;;;;9.03;8.27;;;25.10;99.00;;;;;;5091338;28;20755;-78
2021/09/30 04:45:32;;;;;;;7.60;6.93;;;25.30;98.60;;;;;;5091435;28;20190;-74
2021/09/30 04:47:59;;;;;;;6.55;5.95;;;25.20;98.90;;;;;;5051137;28;63960;-76
2021/09/30 04:50:27;;;;;;;4.93;4.10;;;25.00;99.10;;;;;;4986457;28;500341;-77
2021/09/30 04:53:00;;;;;;;6.90;6.30;;;25.20;99.30;;;;;;5059463;28;30641;-74
2021/09/30 04:55:28;;;;;;;7.70;7.05;;;25.50;99.10;;;;;;5063885;28;70013;-73
2021/09/30 04:57:55;;;;;;;6.60;6.00;;;25.70;99.10;;;;;;5068430;28;47329;-79
2021/09/30 05:00:22;;;;;;;8.00;7.30;;;26.00;98.60;;;;;;5070972;28;29248;-76
2021/09/30 05:02:50;;;;;;;9.50;8.70;;;26.00;98.50;;;;;;5082976;28;20431;-75
2021/09/30 05:05:17;;;;;;;10.40;9.50;;;26.50;97.90;;;;;;5083559;28;20826;-77
2021/09/30 05:07:44;;;;;;;7.30;6.63;;;26.40;97.70;;;;;;5081088;28;20338;-76
2021/09/30 05:10:17;;;;;;;8.33;7.53;;;26.10;97.50;;;;;;5083563;28;20329;-79
2021/09/30 05:12:44;;;;;;;5.13;4.30;;;26.60;97.10;;;;;;5085616;28;20380;-77
2021/09/30 05:15:12;;;;;;;9.23;8.43;;;26.50;95.80;;;;;;5087159;28;20343;-73
2021/09/30 05:17:40;;;;;;;7.55;6.85;;;26.20;96.10;;;;;;5072769;28;20297;-77
2021/09/30 05:20:08;;;;;;;63.50;18.20;;;25.50;95.40;;;;;;5019375;28;628703;-76
2021/09/30 05:22:34;;;;;;;;;;;25.70;96.10;;;;;;5092050;28;20190;-78
2021/09/30 05:25:01;;;;;;;;;;;25.90;94.70;;;;;;5089806;28;20354;-75
2021/09/30 05:27:28;;;;;;;;;;;25.20;94.70;;;;;;5091884;28;19908;-78
2021/09/30 05:29:54;;;;;;;;;;;25.00;95.30;;;;;;5089801;28;20320;-77
2021/09/30 05:32:21;;;;;;;;;;;24.90;95.60;;;;;;5091577;28;19972;-77
2021/09/30 05:34:48;;;;;;;;;;;24.90;96.20;;;;;;5086513;28;20398;-78
2021/09/30 05:37:15;;;;;;;;;;;24.60;96.10;;;;;;5090370;28;19956;-76
2021/09/30 05:39:41;;;;;;;;;;;24.10;96.90;;;;;;5088490;28;19908;-68
2021/09/30 05:42:08;;;;;;;;;;;23.80;97.10;;;;;;5085365;28;19914;-70
2021/09/30 05:44:38;;;;;;;;;;;23.60;97.40;;;;;;5089038;28;19930;-66
2021/09/30 05:47:04;;;;;;;;;;;23.40;98.00;;;;;;5089256;28;20401;-72
2021/09/30 05:49:31;;;;;;;;;;;23.20;98.20;;;;;;5088675;28;19911;-74
2021/09/30 05:51:58;;;;;;;;;;;22.80;98.40;;;;;;5089169;28;19916;-68
2021/09/30 05:54:24;;;;;;;;;;;22.70;99.10;;;;;;5088127;28;19944;-70
2021/09/30 05:56:51;;;;;;;;;;;22.50;99.60;;;;;;5088052;28;19923;-71
2021/09/30 05:59:21;;;;;;;;;;;22.30;99.40;;;;;;5088269;28;19950;-66
2021/09/30 06:12:45;;;;;;;;;;;21.50;99.90;;;;;;5090101;28;20270;-72
2021/09/30 06:15:25;;;;;;;;;;;21.40;99.90;;;;;;5089835;28;19908;-69
2021/09/30 06:17:56;;;;;;;;;;;21.20;99.90;;;;;;5089088;28;20006;-68
2021/09/30 06:20:23;;;;;;;;;;;21.20;99.90;;;;;;5084440;28;19999;-70
2021/09/30 06:22:49;;;;;;;;;;;21.20;99.90;;;;;;5088607;28;19916;-69
2021/09/30 06:25:16;;;;;;;;;;;21.20;99.90;;;;;;5086879;28;20312;-66
2021/09/30 06:27:43;;;;;;;;;;;21.10;99.90;;;;;;5086785;28;19962;-65
2021/09/30 06:30:10;;;;;;;;;;;21.10;99.90;;;;;;5087269;28;19908;-66
2021/09/30 06:32:36;;;;;;;;;;;21.40;99.90;;;;;;5087795;28;19923;-65
2021/09/30 06:35:04;;;;;;;;;;;22.00;99.90;;;;;;5087802;28;19923;-65
2021/09/30 06:37:31;;;;;;;;;;;22.10;99.90;;;;;;5088092;28;19908;-73
2021/09/30 06:39:57;;;;;;;;;;;22.10;99.90;;;;;;5087144;28;20003;-69
2021/09/30 06:42:24;;;;;;;;;;;22.00;99.90;;;;;;5086885;28;19915;-67
2021/09/30 06:44:51;;;;;;;;;;;21.70;99.90;;;;;;5078975;28;19965;-72
2021/09/30 06:47:18;;;;;;;;;;;21.50;99.90;;;;;;5082915;28;19952;-66
2021/09/30 06:49:45;;;;;;;;;;;21.70;99.90;;;;;;5085923;28;19911;-71
2021/09/30 06:52:11;;;;;;;;;;;21.70;99.90;;;;;;5085642;28;19916;-71
2021/09/30 06:54:38;;;;;;;;;;;21.40;99.90;;;;;;5086517;28;19915;-66
2021/09/30 06:57:05;;;;;;;;;;;21.30;99.90;;;;;;5087790;28;20282;-72
2021/09/30 06:59:35;;;;;;;;;;;21.10;99.90;;;;;;5090326;28;19939;-69
2021/09/30 07:02:08;;;;;;;;;;;21.00;99.90;;;;;;5086979;28;19908;-67
2021/09/30 07:04:35;;;;;;;;;;;20.80;99.90;;;;;;5086298;28;20295;-67
2021/09/30 07:07:04;;;;;;;;;;;20.70;99.90;;;;;;5090867;28;19908;-65
2021/09/30 07:09:31;;;;;;;;;;;20.60;99.90;;;;;;5089012;28;20281;-66
2021/09/30 07:11:59;;;;;;;;;;;20.60;99.90;;;;;;5090138;28;19945;-66
2021/09/30 07:14:26;;;;;;;;;;;20.50;99.90;;;;;;5091763;28;19908;-67
2021/09/30 07:16:53;;;;;;;;;;;20.50;99.90;;;;;;5091979;28;20355;-65
2021/09/30 07:19:20;;;;;;;;;;;20.60;99.90;;;;;;5091715;28;20025;-65
2021/09/30 07:21:47;;;;;;;;;;;20.50;99.90;;;;;;5089635;28;19923;-66
2021/09/30 07:24:14;;;;;;;;;;;20.50;99.90;;;;;;5088291;28;19994;-66
2021/09/30 07:26:40;;;;;;;;;;;20.50;99.90;;;;;;5087597;28;19995;-68
2021/09/30 07:29:07;;;;;;;;;;;20.30;99.90;;;;;;5090319;28;19908;-64
2021/09/30 07:31:34;;;;;;;;;;;20.20;99.90;;;;;;5087988;28;19922;-65
2021/09/30 07:34:01;;;;;;;;;;;20.10;99.90;;;;;;5080481;28;19922;-68
2021/09/30 07:36:27;;;;;;;;;;;20.10;99.90;;;;;;5083407;28;19912;-64
2021/09/30 07:38:54;;;;;;;;;;;20.00;99.90;;;;;;5090371;28;19919;-65
2021/09/30 07:41:21;;;;;;;;;;;20.10;99.90;;;;;;5090285;28;19904;-66
2021/09/30 07:43:48;;;;;;;;;;;20.20;99.90;;;;;;5089597;28;19911;-65
2021/09/30 07:46:15;;;;;;;;;;;20.10;99.90;;;;;;5089860;28;19904;-65
2021/09/30 07:48:41;;;;;;;;;;;20.00;99.90;;;;;;5089698;28;19904;-65
2021/09/30 07:51:08;;;;;;;;;;;19.90;99.90;;;;;;5089457;28;19904;-64
2021/09/30 07:53:35;;;;;;;;;;;19.80;99.90;;;;;;5088138;28;19908;-65
2021/09/30 07:56:01;;;;;;;;;;;19.70;99.90;;;;;;5088575;28;19954;-67
2021/09/30 07:58:28;;;;;;;;;;;19.60;99.90;;;;;;5086901;28;20346;-65
2021/09/30 08:00:55;;;;;;;;;;;19.40;99.90;;;;;;5088410;28;19922;-64
2021/09/30 08:03:22;;;;;;;;;;;19.30;99.90;;;;;;5071804;28;19918;-65
2021/09/30 08:05:50;;;;;;;;;;;19.10;99.90;;;;;;5084811;28;19904;-67
2021/09/30 08:08:16;;;;;;;;;;;19.10;99.90;;;;;;5086400;28;19904;-72
2021/09/30 08:10:43;;;;;;;;;;;19.00;99.90;;;;;;5082950;28;19908;-69
2021/09/30 08:13:10;;;;;;;;;;;19.00;99.90;;;;;;5088034;28;20388;-65
2021/09/30 08:15:36;;;;;;;;;;;19.00;99.90;;;;;;5073047;28;19947;-67
2021/09/30 08:18:03;;;;;;;;;;;18.90;99.90;;;;;;5077966;28;19904;-65
2021/09/30 08:20:34;;;;;;;;;;;18.90;99.90;;;;;;5085507;28;19935;-64
2021/09/30 08:23:00;;;;;;;;;;;18.90;99.90;;;;;;5081524;28;19953;-68
2021/09/30 08:25:27;;;;;;;;;;;18.90;99.90;;;;;;5085923;28;19914;-65
2021/09/30 08:27:54;;;;;;;;;;;19.00;99.90;;;;;;5078479;28;20350;-64
2021/09/30 08:30:20;;;;;;;;;;;19.00;99.90;;;;;;5086288;28;19908;-70
2021/09/30 08:32:47;;;;;;;;;;;19.00;99.90;;;;;;5086745;28;20010;-66
2021/09/30 08:35:14;;;;;;;;;;;19.00;99.90;;;;;;5086633;28;19904;-66
2021/09/30 08:37:40;;;;;;;;;;;19.00;99.90;;;;;;5086241;28;19908;-68
2021/09/30 08:40:07;;;;;;;;;;;19.00;99.90;;;;;;5082871;28;20303;-67
2021/09/30 08:42:34;;;;;;;;;;;19.00;99.90;;;;;;5086082;28;19908;-64
2021/09/30 08:45:01;;;;;;;;;;;19.00;99.90;;;;;;5085853;28;19915;-73
2021/09/30 08:47:29;;;;;;;;;;;18.90;99.90;;;;;;5085717;28;19908;-66
2021/09/30 08:49:55;;;;;;;;;;;18.90;99.90;;;;;;5087695;28;20370;-72
2021/09/30 08:52:22;;;;;;;;;;;18.80;99.90;;;;;;5086608;28;19912;-64
2021/09/30 08:54:49;;;;;;;;;;;18.80;99.90;;;;;;5088265;28;20362;-66
2021/09/30 08:57:15;;;;;;;;;;;18.70;99.90;;;;;;5086759;28;20005;-71
2021/09/30 08:59:42;;;;;;;;;;;18.60;99.90;;;;;;5088061;28;19911;-66
2021/09/30 09:02:14;;;;;;;;;;;18.60;99.90;;;;;;5080907;28;19919;-70
2021/09/30 09:05:06;;;;;;;;;;;18.50;99.90;;;;;;5087378;28;19921;-73
2021/09/30 09:07:33;;;;;;;;;;;18.50;99.90;;;;;;5085842;28;19908;-65
2021/09/30 09:10:03;;;;;;;;;;;18.50;99.90;;;;;;5071999;28;20042;-65
2021/09/30 09:12:31;;;;;;;;;;;18.50;99.90;;;;;;5085978;28;19924;-66
2021/09/30 09:14:59;;;;;;;;;;;18.50;99.90;;;;;;5086341;28;19908;-71
2021/09/30 09:17:25;;;;;;;;;;;18.60;99.90;;;;;;5086814;28;20366;-73
2021/09/30 09:20:02;;;;;;;;;;;18.60;99.90;;;;;;5087440;28;19915;-67
2021/09/30 09:22:35;;;;;;;;;;;18.60;99.90;;;;;;5087311;28;19908;-69
2021/09/30 09:25:13;;;;;;;;;;;18.70;99.90;;;;;;5086100;28;20300;-66
2021/09/30 09:27:45;;;;;;;;;;;18.70;99.90;;;;;;5075007;28;20309;-70
2021/09/30 09:30:24;;;;;;;;;;;18.80;99.90;;;;;;5079410;28;20298;-64
2021/09/30 09:33:07;;;;;;;;;;;18.90;99.90;;;;;;5074407;28;19912;-64
2021/09/30 09:35:49;;;;;;;;;;;18.80;99.90;;;;;;5074208;28;19908;-75
2021/09/30 09:38:16;;;;;;;;;;;18.80;99.90;;;;;;5083526;28;19915;-75
2021/09/30 09:40:43;;;;;;;;;;;18.80;99.90;;;;;;5088335;28;19908;-76
2021/09/30 09:43:28;;;;;;;;;;;18.90;99.90;;;;;;5088175;28;19939;-71
2021/09/30 09:45:55;;;;;;;;;;;18.80;99.90;;;;;;5082802;28;19949;-76
2021/09/30 09:48:21;;;;;;;;;;;18.90;99.90;;;;;;5067630;28;19943;-74
2021/09/30 09:50:52;;;;;;;;;;;18.90;99.90;;;;;;5082438;28;19908;-74
2021/09/30 09:53:19;;;;;;;;;;;19.00;99.90;;;;;;5087536;28;19920;-68
2021/09/30 09:55:46;;;;;;;;;;;19.00;99.90;;;;;;5087993;28;19954;-71
2021/09/30 09:58:15;;;;;;;;;;;19.00;99.90;;;;;;5088659;28;19910;-69
2021/09/30 10:00:57;;;;;;;;;;;18.90;99.90;;;;;;5088710;28;19904;-78
2021/09/30 10:03:26;;;;;;;;;;;18.90;99.90;;;;;;5088388;28;19910;-74
2021/09/30 10:05:54;;;;;;;;;;;18.90;99.90;;;;;;5087893;28;19940;-70
2021/09/30 10:08:20;;;;;;;;;;;19.00;99.90;;;;;;5088457;28;19904;-72
2021/09/30 10:10:48;;;;;;;;;;;19.00;99.90;;;;;;5088720;28;19904;-70
2021/09/30 10:13:16;;;;;;;;;;;19.00;99.90;;;;;;5088243;28;19919;-79
2021/09/30 10:15:46;;;;;;;;;;;18.90;99.90;;;;;;5088386;28;19912;-70
2021/09/30 10:18:13;;;;;;;;;;;18.90;99.90;;;;;;5088625;28;19904;-68
2021/09/30 10:20:41;;;;;;;;;;;19.00;99.90;;;;;;5088392;28;19987;-72
2021/09/30 10:23:09;;;;;;;;;;;19.00;99.90;;;;;;5085369;28;20267;-76
2021/09/30 10:25:43;;;;;;;;;;;18.90;99.90;;;;;;5086623;28;19908;-73
2021/09/30 10:28:13;;;;;;;;;;;18.90;99.90;;;;;;5088057;28;19908;-75
2021/09/30 10:30:56;;;;;;;;;;;19.00;99.90;;;;;;5075385;28;20290;-81
2021/09/30 10:33:43;;;;;;;;;;;19.00;99.90;;;;;;5091159;28;20015;-68
2021/09/30 10:36:28;;;;;;;;;;;19.00;99.90;;;;;;5092927;28;19951;-68
2021/09/30 10:39:13;;;;;;;;;;;19.00;99.90;;;;;;5093152;28;19930;-80
2021/09/30 10:41:40;;;;;;;;;;;19.00;99.90;;;;;;5091962;28;19908;-78
2021/09/30 10:44:35;;;;;;;;;;;19.00;99.90;;;;;;5091517;28;19987;-67
2021/09/30 10:47:04;;;;;;;;;;;19.00;99.90;;;;;;5090264;28;19908;-71
2021/09/30 10:49:39;;;;;;;;;;;19.10;99.90;;;;;;5091911;28;19927;-77
2021/09/30 10:52:25;;;;;;;;;;;19.10;99.90;;;;;;5091671;28;20006;-79
2021/09/30 10:54:52;;;;;;;;;;;19.00;99.90;;;;;;5091422;28;19919;-76
2021/09/30 10:57:37;;;;;;;;;;;19.10;99.90;;;;;;5091916;28;19912;-76
2021/09/30 11:00:09;;;;;;;;;;;19.10;99.90;;;;;;5091711;28;19930;-78
2021/09/30 11:02:53;;;;;;;;;;;19.20;99.90;;;;;;5091421;28;19915;-80
2021/09/30 11:05:20;;;;;;;;;;;19.30;99.90;;;;;;5091585;28;20334;-72
2021/09/30 11:08:06;;;;;;;;;;;19.30;99.90;;;;;;5090405;28;19908;-80
2021/09/30 11:10:33;;;;;;;;;;;19.30;99.90;;;;;;5090617;28;19908;-77
2021/09/30 11:13:28;;;;;;;;;;;19.30;99.90;;;;;;5085854;28;19920;-74
2021/09/30 11:16:14;;;;;;;;;;;19.30;99.90;;;;;;5085313;28;19908;-77
2021/09/30 11:18:42;;;;;;;;;;;19.30;99.90;;;;;;5090861;28;19911;-73
2021/09/30 11:21:27;;;;;;;;;;;19.40;99.90;;;;;;5091052;28;19908;-72
2021/09/30 11:23:53;;;;;;;;;;;19.40;99.90;;;;;;5090665;28;20061;-80
2021/09/30 11:26:20;;;;;;;;;;;19.50;99.90;;;;;;5092436;28;19904;-75
2021/09/30 11:28:47;;;;;;;;;;;19.40;99.90;;;;;;5091397;28;19995;-77
2021/09/30 11:31:27;;;;;;;;;;;19.50;99.90;;;;;;5091569;28;19915;-73
2021/09/30 11:33:55;;;;;;;;;;;19.50;99.90;;;;;;5091759;28;19915;-79
2021/09/30 11:36:35;;;;;;;;;;;19.40;99.90;;;;;;5080810;28;19911;-76
2021/09/30 11:39:03;;;;;;;;;;;19.50;99.90;;;;;;5091302;28;19908;-79
2021/09/30 11:41:30;;;;;;;;;;;19.50;99.90;;;;;;5091672;28;19911;-71
2021/09/30 11:43:57;;;;;;;;;;;19.50;99.90;;;;;;5090110;28;19904;-68
2021/09/30 11:46:31;;;;;;;;;;;19.40;99.90;;;;;;5090411;28;19908;-73
2021/09/30 11:49:16;;;;;;;;;;;19.50;99.90;;;;;;5074592;28;19955;-72
2021/09/30 11:51:44;;;;;;;;;;;19.50;99.90;;;;;;5084870;28;19965;-73
2021/09/30 11:54:15;;;;;;;;;;;19.40;99.90;;;;;;5077604;28;20373;-78
2021/09/30 11:56:46;;;;;;;;;;;19.40;99.90;;;;;;5090441;28;19904;-70
2021/09/30 11:59:13;;;;;;;;;;;19.40;99.90;;;;;;5090452;28;19987;-75
2021/09/30 12:01:42;;;;;;;;;;;19.40;99.90;;;;;;5091008;28;19904;-76
2021/09/30 12:04:09;;;;;;;;;;;19.30;99.90;;;;;;5089823;28;19912;-78
2021/09/30 12:06:39;;;;;;;;;;;19.30;99.90;;;;;;5090783;28;20328;-76
2021/09/30 12:09:07;;;;;;;;;;;19.40;99.90;;;;;;5090254;28;19904;-76
2021/09/30 12:11:35;;;;;;;;;;;19.30;99.90;;;;;;5089766;28;19938;-76
2021/09/30 12:14:08;;;;;;;;;;;19.20;99.90;;;;;;5083709;28;19903;-75
2021/09/30 12:16:51;;;;;;;;;;;19.20;99.90;;;;;;5075821;28;20239;-76
2021/09/30 12:19:27;;;;;;;;;;;19.20;99.90;;;;;;5077616;28;20274;-76
2021/09/30 12:21:54;;;;;;;;;;;19.10;99.90;;;;;;5089011;28;19940;-77
2021/09/30 12:24:21;;;;;;;;;;;19.10;99.90;;;;;;5088359;28;20425;-77
2021/09/30 12:26:47;;;;;;;;;;;19.10;99.90;;;;;;5089550;28;19908;-78
2021/09/30 12:29:16;;;;;;;;;;;19.10;99.90;;;;;;5088534;28;19915;-78
2021/09/30 12:31:43;;;;;;;;;;;19.10;99.90;;;;;;5089072;28;19957;-79
2021/09/30 12:34:23;;;;;;;;;;;19.00;99.90;;;;;;5083160;28;20396;-78
2021/09/30 12:36:49;;;;;;;;;;;19.10;99.90;;;;;;5088758;28;20290;-73
2021/09/30 12:39:23;;;;;;;;;;;19.10;99.90;;;;;;5085891;28;20343;-77
2021/09/30 12:41:50;;;;;;;;;;;19.10;99.90;;;;;;5080239;28;20354;-78
2021/09/30 12:44:17;;;;;;;;;;;19.10;99.90;;;;;;5083775;28;19915;-77
2021/09/30 12:46:45;;;;;;;;;;;19.00;99.90;;;;;;5086257;28;20145;-77
2021/09/30 12:49:13;;;;;;;;;;;19.00;99.90;;;;;;5073590;28;19904;-78
2021/09/30 12:51:39;;;;;;;;;;;18.90;99.90;;;;;;5090687;28;19927;-78
2021/09/30 12:54:06;;;;;;;;;;;18.90;99.90;;;;;;5087667;28;19904;-77
2021/09/30 12:56:34;;;;;;;;;;;18.80;99.90;;;;;;5087792;28;19950;-78
2021/09/30 12:59:14;;;;;;;;;;;18.80;99.90;;;;;;5096215;28;19956;-77
2021/09/30 13:01:41;;;;;;;;;;;18.70;99.90;;;;;;5088413;28;19911;-78
2021/09/30 13:04:22;;;;;;;;;;;18.70;99.90;;;;;;5088976;28;20292;-77
2021/09/30 13:07:03;;;;;;;;;;;18.70;99.90;;;;;;5088826;28;20024;-74
2021/09/30 13:09:31;;;;;;;;;;;18.60;99.90;;;;;;5077588;28;19923;-70
2021/09/30 13:12:16;;;;;;;;;;;18.60;99.90;;;;;;5087437;28;19919;-73
2021/09/30 13:14:53;;;;;;;;;;;18.60;99.90;;;;;;5074000;28;19904;-69
2021/09/30 13:17:20;;;;;;;;;;;18.70;99.90;;;;;;5088132;28;19904;-71
2021/09/30 13:19:48;;;;;;;;;;;18.70;99.90;;;;;;5088064;28;19908;-73
2021/09/30 13:22:16;;;;;;;;;;;18.70;99.90;;;;;;5088228;28;19995;-71
2021/09/30 13:24:44;;;;;;;;;;;18.80;99.90;;;;;;5087349;28;19904;-75
2021/09/30 13:27:12;;;;;;;;;;;18.90;99.90;;;;;;5087890;28;19908;-78
2021/09/30 13:29:38;;;;;;;;;;;19.00;99.90;;;;;;5087500;28;20342;-77
2021/09/30 13:32:06;;;;;;;;;;;18.90;99.90;;;;;;5087967;28;19916;-77
2021/09/30 13:34:33;;;;;;;;;;;18.90;99.90;;;;;;5087891;28;20116;-77
2021/09/30 13:37:00;;;;;;;;;;;18.80;99.90;;;;;;5076704;28;19974;-77
2021/09/30 13:39:26;;;;;;;;;;;18.80;99.90;;;;;;5079773;28;19934;-74
2021/09/30 13:41:53;;;;;;;;;;;18.80;99.90;;;;;;5086895;28;20307;-77
2021/09/30 13:44:20;;;;;;;;;;;18.70;99.90;;;;;;5087090;28;19908;-78
2021/09/30 13:46:47;;;;;;;;;;;18.70;99.90;;;;;;5087319;28;19962;-75
2021/09/30 13:49:14;;;;;;;;;;;18.60;99.90;;;;;;5087435;28;19904;-77
2021/09/30 13:51:41;;;;;;;;;;;18.60;99.90;;;;;;5086633;28;19912;-76
2021/09/30 13:54:07;;;;;;;;;;;18.50;99.90;;;;;;5080101;28;19943;-73
2021/09/30 13:56:34;;;;;;;;;;;18.50;99.90;;;;;;5087014;28;19908;-78
2021/09/30 13:59:01;;;;;;;;;;;18.40;99.90;;;;;;5086696;28;19908;-77
2021/09/30 14:01:28;;;;;;;;;;;18.40;99.90;;;;;;5087281;28;19998;-77
2021/09/30 14:03:55;;;;;;;;;;;18.30;99.90;;;;;;5086934;28;19958;-77
2021/09/30 14:06:22;;;;;;;;;;;18.30;99.90;;;;;;5086947;28;19949;-77
2021/09/30 14:08:52;;;;;;;;;;;18.20;99.90;;;;;;5087026;28;20285;-74
2021/09/30 14:11:21;;;;;;;;;;;18.10;99.90;;;;;;5086716;28;19916;-74
2021/09/30 14:13:48;;;;;;;;;;;18.00;99.90;;;;;;5085897;28;19915;-73
2021/09/30 14:16:14;;;;;;;;;;;17.90;99.90;;;;;;5086712;28;20412;-75
2021/09/30 14:18:41;;;;;;;;;;;17.90;99.90;;;;;;5086767;28;19904;-75
2021/09/30 14:21:09;;;;;;;;;;;17.90;99.90;;;;;;5085952;28;19904;-77
2021/09/30 14:23:35;;;;;;;;;;;17.80;99.90;;;;;;5083832;28;19908;-75
2021/09/30 14:26:02;;;;;;;;;;;17.80;99.90;;;;;;5086217;28;19908;-76
2021/09/30 14:28:29;;;;;;;;;;;17.70;99.90;;;;;;5072155;28;19912;-76
2021/09/30 14:30:56;;;;;;;;;;;17.70;99.90;;;;;;5086393;28;19911;-72
2021/09/30 14:33:24;;;;;;;;;;;17.60;99.90;;;;;;5086095;28;20358;-76
2021/09/30 14:35:51;;;;;;;;;;;17.60;99.90;;;;;;5085574;28;19982;-77
2021/09/30 14:38:18;;;;;;;;;;;17.50;99.90;;;;;;5085863;28;19916;-77
2021/09/30 14:40:50;;;;;;;;;;;17.50;99.90;;;;;;5085874;28;20370;-73
2021/09/30 14:43:21;;;;;;;;;;;17.50;99.90;;;;;;5085410;28;19934;-77
2021/09/30 14:45:48;;;;;;;;;;;17.40;99.90;;;;;;5085249;28;19916;-70
2021/09/30 14:48:16;;;;;;;;;;;17.40;99.90;;;;;;5085883;28;19904;-67
2021/09/30 14:50:44;;;;;;;;;;;17.40;99.90;;;;;;5086040;28;20374;-69
2021/09/30 14:53:11;;;;;;;;;;;17.30;99.90;;;;;;5115421;28;19920;-66
2021/09/30 14:55:38;;;;;;;;;;;17.30;99.90;;;;;;5085414;28;19968;-67
2021/09/30 14:58:06;;;;;;;;;;;17.30;99.90;;;;;;5085568;28;19904;-65
2021/09/30 15:00:32;;;;;;;;;;;17.30;99.90;;;;;;5085976;28;20275;-69
2021/09/30 15:03:02;;;;;;;;;;;17.30;99.90;;;;;;5086634;28;19908;-70
2021/09/30 15:05:30;;;;;;;;;;;17.30;99.90;;;;;;5085841;28;19915;-66
2021/09/30 15:07:57;;;;;;;;;;;17.30;99.90;;;;;;5085485;28;19904;-66
2021/09/30 15:10:24;;;;;;;;;;;17.30;99.90;;;;;;5085643;28;19951;-68
2021/09/30 15:12:51;;;;;;;;;;;17.30;99.90;;;;;;5081917;28;19923;-66
2021/09/30 15:15:17;;;;;;;;;;;17.40;99.90;;;;;;5079810;28;19914;-73
2021/09/30 15:21:20;;;;;;;;;;;17.40;99.90;;;;;;5088761;28;20003;-65
2021/09/30 15:22:57;;;;;;;;;;;17.40;99.90;;;;;;5087976;28;19915;-73
2021/09/30 15:25:25;;;;;;;;;;;17.40;99.90;;;;;;5087929;28;19904;-68
2021/09/30 15:27:52;;;;;;;;;;;17.40;99.90;;;;;;5088625;28;19931;-66
2021/09/30 15:30:19;;;;;;;;;;;17.50;99.90;;;;;;5088571;28;19921;-67
2021/09/30 15:32:46;;;;;;;;;;;17.60;99.90;;;;;;5088516;28;19916;-67
2021/09/30 15:35:12;;;;;;;;;;;17.70;99.90;;;;;;5089157;28;19995;-68
2021/09/30 15:37:40;;;;;;;;;;;17.80;99.90;;;;;;5078121;28;19966;-69
2021/09/30 15:40:08;;;;;;;;;;;17.80;99.90;;;;;;5080776;28;19904;-70
2021/09/30 15:42:35;;;;;;;;;;;17.90;99.90;;;;;;5089077;28;19915;-69
2021/09/30 15:45:01;;;;;;;;;;;17.90;99.90;;;;;;5068694;28;19912;-67
2021/09/30 15:47:28;;;;;;;;;;;17.80;99.90;;;;;;5084369;28;20272;-66
2021/09/30 15:49:55;;;;;;;;;;;17.80;99.90;;;;;;5088575;28;19908;-76
2021/09/30 15:52:21;;;;;;;;;;;17.90;99.90;;;;;;5075419;28;19908;-69
2021/09/30 15:54:48;;;;;;;;;;;17.80;99.90;;;;;;5087414;28;19973;-76
2021/09/30 15:57:15;;;;;;;;;;;17.90;99.90;;;;;;5087965;28;20328;-72
2021/09/30 15:59:42;;;;;;;;;;;17.80;99.90;;;;;;5088077;28;19911;-78
2021/09/30 16:02:08;;;;;;;;;;;18.10;99.90;;;;;;5088607;28;19904;-77
2021/09/30 16:04:35;;;;;;;;;;;18.20;99.90;;;;;;5088260;28;19904;-76
2021/09/30 16:07:02;;;;;;;;;;;18.20;99.90;;;;;;5088187;28;20127;-73
2021/09/30 16:09:29;;;;;;;;;;;18.10;99.90;;;;;;5088017;28;19908;-66
2021/09/30 16:11:56;;;;;;;;;;;18.00;99.90;;;;;;5087599;28;20710;-70
2021/09/30 16:14:22;;;;;;;;;;;18.20;99.90;;;;;;5088266;28;19904;-77
2021/09/30 16:16:49;;;;;;;;;;;18.00;99.90;;;;;;5087635;28;20319;-67
2021/09/30 16:19:16;;;;;;;;;;;18.00;99.90;;;;;;5088281;28;19904;-74
2021/09/30 16:21:42;;;;;;;;;;;17.80;99.90;;;;;;5088131;28;19911;-67
2021/09/30 16:24:09;;;;;;;;;;;17.80;99.90;;;;;;5087393;28;19915;-70
2021/09/30 16:26:36;;;;;;;;;;;17.90;99.90;;;;;;5088037;28;20016;-71
2021/09/30 16:29:03;;;;;;;;;;;17.70;99.90;;;;;;5088419;28;20355;-65
2021/09/30 16:31:33;;;;;;;;;;;17.80;99.90;;;;;;5087996;28;19914;-65
2021/09/30 16:33:59;;;;;;;;;;;17.90;99.90;;;;;;5085999;28;20009;-65
2021/09/30 16:36:26;;;;;;;;;;;17.70;99.90;;;;;;5086301;28;19908;-67
2021/09/30 16:38:53;;;;;;;;;;;17.50;99.90;;;;;;5087990;28;19904;-65
2021/09/30 16:41:20;;;;;;;;;;;17.30;99.90;;;;;;5087495;28;19915;-66
2021/09/30 16:43:46;;;;;;;;;;;17.20;99.90;;;;;;5087682;28;19940;-68
2021/09/30 16:46:13;;;;;;;;;;;17.10;99.90;;;;;;5087641;28;19961;-68
2021/09/30 16:48:40;;;;;;;;;;;16.90;99.90;;;;;;5086430;28;19920;-77
2021/09/30 16:51:07;;;;;;;;;;;16.90;99.90;;;;;;5081019;28;20044;-65
2021/09/30 16:53:33;;;;;;;;;;;16.80;99.90;;;;;;5083374;28;20314;-69
2021/09/30 16:56:03;;;;;;;;;;;16.80;99.90;;;;;;5083732;28;19915;-70
2021/09/30 16:58:30;;;;;;;;;;;16.70;99.90;;;;;;5084807;28;19910;-65
2021/09/30 17:00:56;;;;;;;;;;;16.70;99.90;;;;;;5084716;28;19918;-65
2021/09/30 17:03:23;;;;;;;;;;;16.70;99.90;;;;;;5085095;28;19919;-68
2021/09/30 17:05:50;;;;;;;;;;;16.70;99.90;;;;;;5085001;28;20371;-66
2021/09/30 17:08:16;;;;;;;;;;;16.70;99.90;;;;;;5085554;28;19916;-82